Date,TemperatureHighF,TemperatureAvgF,TemperatureLowF,DewpointHighF,DewpointAvgF,DewpointLowF,HumidityHigh,HumidityAvg,HumidityLow,PressureMaxIn,PressureMinIn,WindSpeedMaxMPH,WindSpeedAvgMPH,GustSpeedMaxMPH,PrecipitationSumIn
2014-1-1,37.2,32.9,29.2,26.0,19.2,9.0,85,59,37,30.42,30.13,10,3,17,0.00
2014-1-2,41.6,33.4,11.8,41.0,26.8,10.0,98,79,45,30.12,29.59,36,9,62,0.03
2014-1-3,18.7,10.8,3.5,9.0,2.3,-13.0,91,72,24,30.52,29.68,20,6,45,0.00
2014-1-4,35.4,23.6,11.6,35.0,11.8,-13.0,99,64,19,30.53,30.31,18,6,30,0.00
2014-1-5,43.0,38.9,34.8,43.0,38.9,35.0,100,100,99,30.29,29.68,20,7,34,0.04
2014-1-6,40.5,12.9,-9.9,41.0,10.9,-13.0,100,91,81,30.07,29.60,34,18,48,0.04
2014-1-7,13.0,-1.2,-12.6,1.0,-8.8,-16.0,85,72,37,30.65,30.08,23,9,43,0.00
2014-1-8,38.8,26.7,13.6,22.0,9.2,-8.0,62,48,37,30.70,30.53,13,4,24,0.00
2014-1-9,40.1,34.1,30.5,32.0,11.5,5.0,96,41,26,30.54,30.44,9,3,12,0.00
2014-1-10,46.3,42.1,31.9,46.0,42.0,31.0,100,100,97,30.45,30.06,10,2,14,0.40
2014-1-11,47.9,44.1,33.8,48.0,42.9,30.0,100,96,75,30.05,29.56,29,9,51,0.85
2014-1-12,44.7,35.4,28.1,30.0,26.2,16.0,93,72,33,30.17,29.60,35,11,54,0.01
2014-1-13,47.1,39.9,34.8,35.0,28.6,20.0,98,67,35,30.15,29.88,15,5,25,0.04
2014-1-14,40.5,37.2,34.3,40.0,32.4,21.0,99,84,51,29.97,29.76,21,7,37,0.13
2014-1-15,37.5,28.7,19.2,28.0,23.8,17.0,96,83,50,29.94,29.86,17,6,24,0.00
2014-1-16,33.5,22.6,13.6,18.0,13.0,9.0,91,69,42,30.05,29.91,16,5,22,0.00
2014-1-17,38.4,29.3,17.4,25.0,19.7,13.0,92,69,46,30.01,29.82,21,7,32,0.00
2014-1-18,29.0,16.7,7.0,18.0,10.0,3.0,91,76,48,30.07,29.84,21,9,33,0.00
2014-1-19,32.9,28.8,25.5,25.0,21.0,15.0,94,73,52,30.02,29.93,24,10,37,0.00
2014-1-20,48.7,40.2,30.7,25.0,17.0,3.0,54,40,24,29.94,29.82,24,11,48,0.00
2014-1-21,40.7,29.6,9.5,30.0,22.0,7.0,93,75,53,29.82,29.50,25,9,37,0.00
2014-1-22,19.6,9.0,1.1,6.0,0.2,-7.0,90,70,38,30.13,29.74,22,8,36,0.00
2014-1-23,15.9,9.5,-1.8,8.0,2.4,-9.0,85,73,61,30.46,30.12,25,12,42,0.00
2014-1-24,19.8,4.5,-7.6,-4.0,-8.7,-12.0,84,58,32,30.65,30.30,22,6,30,0.00
2014-1-25,25.1,20.9,10.2,20.0,4.1,-21.0,92,56,12,30.28,29.71,38,15,69,0.02
2014-1-26,42.9,30.0,16.2,25.0,7.6,-19.0,78,44,11,29.97,29.75,33,11,52,0.00
2014-1-27,43.0,32.0,12.1,34.0,24.4,-1.0,93,74,56,30.02,29.80,26,12,40,0.00
2014-1-28,14.2,10.4,7.2,11.0,4.4,-7.0,91,78,47,30.25,30.02,25,4,27,0.00
2014-1-29,17.1,8.2,0.4,6.0,-3.9,-27.0,89,63,14,30.43,30.18,20,7,33,0.00
2014-1-30,29.7,19.5,9.9,8.0,-0.2,-19.0,63,44,22,30.44,30.27,10,3,15,0.00
2014-1-31,48.7,38.4,31.9,17.0,6.3,-4.0,49,27,19,30.26,30.15,9,3,22,0.00